createdAt,value
2023-04-28T00:01:44.676Z,35.00
2023-04-28T00:04:11.898Z,31.77
2023-04-28T00:06:38.985Z,31.27
2023-04-28T00:09:05.855Z,32.00
2023-04-28T00:11:32.702Z,32.22
2023-04-28T00:13:59.448Z,32.92
2023-04-28T00:16:26.234Z,32.92
2023-04-28T00:18:53.061Z,33.70
2023-04-28T00:21:19.756Z,35.67
2023-04-28T00:23:46.502Z,32.20
2023-04-28T00:26:13.230Z,32.03
2023-04-28T00:28:40.051Z,33.65
2023-04-28T00:31:14.762Z,31.58
2023-04-28T00:33:42.383Z,34.13
2023-04-28T00:36:09.775Z,33.95
2023-04-28T00:38:36.883Z,32.25
2023-04-28T00:41:05.073Z,32.30
2023-04-28T00:43:32.222Z,34.80
2023-04-28T00:45:59.416Z,33.53
2023-04-28T00:48:26.446Z,37.50
2023-04-28T00:50:53.241Z,40.75
2023-04-28T00:53:20.179Z,35.80
2023-04-28T00:55:48.109Z,38.17
2023-04-28T00:58:15.056Z,37.00
2023-04-28T01:00:43.164Z,35.90
2023-04-28T01:03:10.909Z,36.17
2023-04-28T01:05:38.092Z,34.25
2023-04-28T01:08:04.932Z,35.05
2023-04-28T01:10:31.630Z,33.55
2023-04-28T01:12:59.758Z,34.70
2023-04-28T01:15:28.392Z,36.60
2023-04-28T01:17:55.752Z,34.45
2023-04-28T01:20:23.658Z,33.63
2023-04-28T01:22:50.362Z,33.42
2023-04-28T01:25:17.194Z,32.28
2023-04-28T01:27:43.880Z,32.70
2023-04-28T01:30:10.988Z,33.28
2023-04-28T01:32:37.743Z,33.80
2023-04-28T01:35:04.957Z,31.40
2023-04-28T01:37:31.722Z,32.03
2023-04-28T01:39:58.446Z,31.83
2023-04-28T01:42:25.379Z,30.73
2023-04-28T01:44:52.108Z,31.52
2023-04-28T01:47:18.939Z,32.17
2023-04-28T01:49:48.022Z,32.90
2023-04-28T01:52:15.228Z,31.63
2023-04-28T01:54:41.942Z,29.67
2023-04-28T01:57:08.800Z,33.13
2023-04-28T01:59:35.751Z,31.55
2023-04-28T02:02:09.400Z,31.08
2023-04-28T02:04:38.223Z,33.00
2023-04-28T02:07:06.201Z,32.20
2023-04-28T02:09:33.923Z,34.95
2023-04-28T02:12:02.264Z,32.05
2023-04-28T02:14:29.907Z,33.80
2023-04-28T02:16:56.602Z,30.58
2023-04-28T02:19:23.302Z,32.58
2023-04-28T02:21:50.349Z,32.45
2023-04-28T02:24:17.211Z,30.42
2023-04-28T02:26:44.160Z,31.52
2023-04-28T02:29:11.070Z,32.63
2023-04-28T02:31:38.125Z,29.95
2023-04-28T02:34:04.919Z,31.08
2023-04-28T02:36:32.881Z,30.75
2023-04-28T02:38:59.609Z,31.50
2023-04-28T02:41:26.968Z,28.55
2023-04-28T02:43:53.857Z,31.70
2023-04-28T02:46:20.775Z,30.40
2023-04-28T02:48:47.523Z,31.98
2023-04-28T02:51:14.465Z,30.77
2023-04-28T02:53:41.250Z,29.50
2023-04-28T02:56:08.041Z,28.65
2023-04-28T02:58:34.767Z,30.63
2023-04-28T03:01:01.646Z,30.65
2023-04-28T03:03:28.631Z,32.33
2023-04-28T03:05:56.964Z,30.25
2023-04-28T03:08:24.169Z,29.92
2023-04-28T03:10:50.993Z,30.48
2023-04-28T03:13:17.732Z,30.42
2023-04-28T03:15:44.668Z,32.67
2023-04-28T03:18:11.404Z,31.73
2023-04-28T03:20:38.070Z,31.48
2023-04-28T03:23:04.819Z,31.48
2023-04-28T03:25:31.602Z,29.75
2023-04-28T03:27:58.303Z,30.55
2023-04-28T03:30:24.996Z,29.90
2023-04-28T03:32:51.732Z,29.45
2023-04-28T03:35:18.553Z,29.95
2023-04-28T03:37:45.307Z,29.60
2023-04-28T03:40:12.440Z,29.02
2023-04-28T03:42:39.269Z,28.60
2023-04-28T03:45:06.446Z,28.92
2023-04-28T03:47:33.585Z,29.13
2023-04-28T03:50:00.420Z,27.40
2023-04-28T03:52:27.580Z,28.15
2023-04-28T03:54:54.379Z,27.38
2023-04-28T03:57:21.105Z,29.50
2023-04-28T03:59:47.798Z,27.48
2023-04-28T04:02:14.635Z,28.27
2023-04-28T04:04:41.553Z,28.63
2023-04-28T04:07:08.392Z,28.00
2023-04-28T04:09:35.132Z,31.83
2023-04-28T04:12:01.887Z,30.77
2023-04-28T04:14:28.559Z,29.67
2023-04-28T04:16:55.713Z,30.05
2023-04-28T04:19:24.065Z,27.48
2023-04-28T04:21:50.873Z,28.60
2023-04-28T04:24:17.946Z,29.58
2023-04-28T04:26:44.808Z,28.15
2023-04-28T04:29:11.527Z,29.42
2023-04-28T04:31:38.381Z,31.85
2023-04-28T04:34:05.301Z,30.38
2023-04-28T04:36:35.303Z,29.50
2023-04-28T04:39:04.969Z,30.50
2023-04-28T04:41:34.239Z,26.90
2023-04-28T04:44:01.034Z,24.67
2023-04-28T04:46:27.928Z,23.65
2023-04-28T04:48:54.616Z,23.75
2023-04-28T04:51:21.832Z,25.15
2023-04-28T04:53:51.059Z,24.70
2023-04-28T04:56:17.948Z,25.08
2023-04-28T04:58:44.765Z,25.13
2023-04-28T05:01:11.547Z,23.90
2023-04-28T05:03:38.378Z,22.30
2023-04-28T05:06:05.285Z,24.45
2023-04-28T05:08:32.082Z,23.25
2023-04-28T05:10:58.839Z,23.23
2023-04-28T05:13:25.785Z,24.13
2023-04-28T05:15:52.480Z,23.63
2023-04-28T05:18:19.211Z,24.63
2023-04-28T05:20:46.123Z,24.38
2023-04-28T05:23:13.044Z,22.67
2023-04-28T05:25:39.868Z,24.05
2023-04-28T05:28:09.908Z,22.10
2023-04-28T05:30:36.664Z,22.05
2023-04-28T05:33:03.467Z,21.88
2023-04-28T05:35:31.756Z,22.15
2023-04-28T05:37:59.217Z,21.27
2023-04-28T05:40:26.887Z,21.20
2023-04-28T05:42:53.826Z,22.40
2023-04-28T05:45:20.666Z,28.40
2023-04-28T05:47:47.867Z,21.40
2023-04-28T05:50:14.782Z,23.27
2023-04-28T05:52:41.514Z,20.75
2023-04-28T05:55:10.300Z,20.13
2023-04-28T05:57:49.324Z,19.83
2023-04-28T06:00:19.808Z,20.27
2023-04-28T06:02:46.843Z,17.23
2023-04-28T06:05:13.877Z,18.20
2023-04-28T06:07:41.162Z,18.52
2023-04-28T06:10:08.313Z,16.80
2023-04-28T06:12:35.044Z,15.43
2023-04-28T06:15:02.101Z,17.23
2023-04-28T06:17:46.223Z,15.35
2023-04-28T06:20:27.617Z,15.13
2023-04-28T06:22:57.570Z,14.98
2023-04-28T06:25:33.317Z,14.50
2023-04-28T06:28:00.348Z,14.15
2023-04-28T06:30:28.598Z,12.65
2023-04-28T06:32:59.182Z,13.77
2023-04-28T06:35:39.138Z,13.45
2023-04-28T06:38:14.662Z,12.57
2023-04-28T06:40:41.677Z,11.63
2023-04-28T06:43:11.152Z,11.25
2023-04-28T06:45:38.399Z,11.80
2023-04-28T06:48:08.649Z,11.02
2023-04-28T06:50:54.434Z,10.25
2023-04-28T06:53:28.213Z,10.02
2023-04-28T06:55:56.756Z,9.68
2023-04-28T06:58:32.657Z,10.45
2023-04-28T07:01:10.016Z,9.75
2023-04-28T07:03:59.190Z,9.18
2023-04-28T07:06:39.350Z,9.95
2023-04-28T07:09:08.213Z,8.10
2023-04-28T07:11:36.416Z,6.25
2023-04-28T07:14:03.179Z,6.10
2023-04-28T07:16:29.978Z,5.63
2023-04-28T07:18:57.114Z,5.65
2023-04-28T07:21:23.901Z,5.32
2023-04-28T07:23:53.812Z,6.45
2023-04-28T07:26:20.892Z,5.28
2023-04-28T07:29:08.438Z,5.95
2023-04-28T07:31:44.424Z,5.90
2023-04-28T07:34:18.854Z,5.35
2023-04-28T07:37:10.982Z,5.03
2023-04-28T07:39:49.138Z,5.13
2023-04-28T07:42:26.894Z,6.00
2023-04-28T07:44:59.359Z,6.05
2023-04-28T07:47:36.919Z,4.85
2023-04-28T07:50:12.815Z,5.50
2023-04-28T07:52:40.063Z,5.10
2023-04-28T07:55:07.200Z,5.00
2023-04-28T07:57:39.750Z,4.88
2023-04-28T08:00:08.467Z,6.03
2023-04-28T08:02:35.567Z,5.63
2023-04-28T08:05:02.794Z,5.55
2023-04-28T08:07:29.730Z,5.13
2023-04-28T08:09:57.370Z,5.82
2023-04-28T08:12:24.231Z,5.93
2023-04-28T08:14:53.039Z,5.15
2023-04-28T08:17:19.958Z,5.03
2023-04-28T08:19:47.551Z,5.05
2023-04-28T08:22:14.242Z,4.97
2023-04-28T08:24:41.507Z,5.43
2023-04-28T08:27:08.355Z,5.70
2023-04-28T08:29:35.178Z,6.10
2023-04-28T08:32:02.266Z,6.20
2023-04-28T08:34:29.504Z,5.93
2023-04-28T08:36:56.236Z,5.85
2023-04-28T08:39:23.854Z,5.70
2023-04-28T08:41:50.772Z,5.88
2023-04-28T08:44:18.567Z,6.47
2023-04-28T08:46:49.145Z,6.00
2023-04-28T08:49:18.232Z,6.55
2023-04-28T08:52:09.708Z,5.43
2023-04-28T08:54:38.846Z,6.50
2023-04-28T08:57:09.320Z,6.18
2023-04-28T08:59:40.245Z,6.15
2023-04-28T09:02:08.800Z,6.10
2023-04-28T09:04:35.996Z,6.85
2023-04-28T09:07:03.081Z,7.07
2023-04-28T09:09:34.727Z,7.13
2023-04-28T09:12:05.094Z,5.80
2023-04-28T09:14:34.470Z,6.57
2023-04-28T09:17:02.832Z,5.68
2023-04-28T09:19:37.033Z,5.35
2023-04-28T09:22:14.483Z,5.97
2023-04-28T09:24:53.129Z,6.90
2023-04-28T09:27:29.249Z,6.80
2023-04-28T09:29:59.693Z,6.50
2023-04-28T09:32:28.145Z,5.63
2023-04-28T09:34:58.496Z,5.68
2023-04-28T09:37:31.167Z,5.95
2023-04-28T09:40:06.629Z,5.50
2023-04-28T09:42:40.683Z,6.32
2023-04-28T09:45:09.739Z,5.65
2023-04-28T09:47:39.235Z,5.78
2023-04-28T09:50:11.679Z,5.88
2023-04-28T09:52:38.748Z,5.85
2023-04-28T09:55:08.615Z,5.75
2023-04-28T09:57:36.284Z,6.72
2023-04-28T10:00:06.737Z,5.82
2023-04-28T10:05:12.949Z,5.50
2023-04-28T10:07:41.288Z,6.00
2023-04-28T10:10:08.917Z,5.97
2023-04-28T10:12:38.555Z,5.85
2023-04-28T10:15:07.161Z,7.00
2023-04-28T10:17:35.117Z,6.18
2023-04-28T10:20:03.493Z,6.43
2023-04-28T10:22:57.918Z,5.90
2023-04-28T10:25:31.271Z,6.03
2023-04-28T10:27:59.474Z,6.10
2023-04-28T10:30:29.632Z,5.55
2023-04-28T10:33:12.192Z,6.45
2023-04-28T10:35:44.363Z,5.90
2023-04-28T10:38:13.767Z,5.78
2023-04-28T10:41:01.086Z,5.60
2023-04-28T10:43:31.882Z,5.40
2023-04-28T10:46:02.240Z,5.97
2023-04-28T10:48:37.289Z,5.93
2023-04-28T10:51:04.209Z,7.20
2023-04-28T10:53:46.825Z,5.80
2023-04-28T10:56:27.400Z,5.22
2023-04-28T10:59:00.665Z,5.75
2023-04-28T11:01:29.794Z,5.88
2023-04-28T11:04:10.772Z,6.95
2023-04-28T11:06:47.908Z,5.85
2023-04-28T11:09:17.639Z,4.88
2023-04-28T11:12:06.710Z,5.50
2023-04-28T11:14:35.310Z,5.03
2023-04-28T11:17:03.174Z,5.05
2023-04-28T11:19:34.091Z,6.00
2023-04-28T11:22:03.437Z,5.45
2023-04-28T11:24:30.981Z,6.00
2023-04-28T11:26:59.004Z,5.32
2023-04-28T11:29:35.931Z,5.15
2023-04-28T11:32:04.255Z,5.05
2023-04-28T11:34:31.087Z,6.15
2023-04-28T11:36:57.766Z,6.13
2023-04-28T11:39:31.366Z,5.82
2023-04-28T11:42:02.750Z,7.18
2023-04-28T11:44:31.170Z,6.43
2023-04-28T11:47:01.081Z,5.38
2023-04-28T11:52:06.956Z,5.43
2023-04-28T11:54:34.410Z,6.13
2023-04-28T11:57:04.220Z,6.15
2023-04-28T11:59:35.515Z,6.55
2023-04-28T12:02:06.945Z,5.93
2023-04-28T12:04:38.094Z,5.72
2023-04-28T12:07:10.879Z,6.53
2023-04-28T12:10:03.969Z,6.45
2023-04-28T12:15:05.573Z,6.72
2023-04-28T12:17:41.533Z,6.50
2023-04-28T12:20:09.396Z,6.88
2023-04-28T12:22:49.848Z,6.55
2023-04-28T12:25:20.140Z,7.25
2023-04-28T12:30:35.217Z,6.97
2023-04-28T12:33:02.149Z,6.65
2023-04-28T12:35:29.752Z,7.00
2023-04-28T12:37:58.476Z,6.47
2023-04-28T12:40:26.122Z,7.55
2023-04-28T12:42:53.161Z,7.35
2023-04-28T12:45:19.833Z,6.43
2023-04-28T12:47:48.947Z,6.43
2023-04-28T12:50:15.796Z,6.85
2023-04-28T12:52:42.512Z,6.57
2023-04-28T12:55:09.746Z,7.10
2023-04-28T12:57:38.961Z,5.97
2023-04-28T13:00:07.625Z,6.05
2023-04-28T13:02:35.213Z,6.70
2023-04-28T13:05:03.095Z,6.25
2023-04-28T13:07:31.844Z,7.55
2023-04-28T13:09:58.987Z,6.50
2023-04-28T13:12:26.425Z,6.40
2023-04-28T13:14:53.264Z,6.50
2023-04-28T13:17:21.130Z,6.80
2023-04-28T13:19:48.066Z,6.35
2023-04-28T13:22:15.765Z,6.78
2023-04-28T13:24:43.113Z,5.70
2023-04-28T13:27:10.370Z,5.57
2023-04-28T13:29:37.476Z,5.53
2023-04-28T13:32:07.845Z,6.95
2023-04-28T13:34:34.718Z,6.68
2023-04-28T13:37:01.590Z,5.10
2023-04-28T13:39:28.705Z,5.38
2023-04-28T13:41:55.470Z,5.45
2023-04-28T13:44:22.691Z,5.18
2023-04-28T13:46:49.830Z,4.70
2023-04-28T13:49:17.109Z,6.35
2023-04-28T13:51:45.859Z,5.63
2023-04-28T13:54:12.791Z,5.97
2023-04-28T13:56:39.659Z,4.90
2023-04-28T13:59:07.248Z,5.95
2023-04-28T14:01:34.121Z,6.30
2023-04-28T14:04:01.340Z,6.28
2023-04-28T14:06:29.297Z,5.57
2023-04-28T14:08:56.103Z,5.18
2023-04-28T14:11:23.066Z,5.95
2023-04-28T14:13:49.848Z,7.15
2023-04-28T14:16:16.757Z,5.00
2023-04-28T14:18:43.646Z,4.85
2023-04-28T14:21:10.337Z,4.90
2023-04-28T14:23:38.059Z,5.20
2023-04-28T14:26:05.019Z,5.35
2023-04-28T14:28:31.822Z,5.28
2023-04-28T14:30:59.189Z,5.63
2023-04-28T14:33:26.018Z,4.97
2023-04-28T14:35:52.992Z,5.97
2023-04-28T14:38:19.850Z,5.00
2023-04-28T14:40:46.664Z,4.97
2023-04-28T14:43:15.741Z,5.05
2023-04-28T14:45:42.566Z,4.78
2023-04-28T14:48:10.703Z,4.53
2023-04-28T14:50:37.730Z,4.88
2023-04-28T14:53:07.686Z,5.00
2023-04-28T14:55:35.001Z,4.93
2023-04-28T14:58:03.349Z,5.40
2023-04-28T15:00:31.398Z,5.40
2023-04-28T15:02:58.539Z,5.22
2023-04-28T15:05:26.052Z,5.18
2023-04-28T15:07:52.827Z,4.75
2023-04-28T15:10:19.725Z,4.90
2023-04-28T15:12:48.649Z,5.20
2023-04-28T15:15:15.537Z,5.32
2023-04-28T15:17:42.308Z,4.45
2023-04-28T15:20:09.394Z,5.30
2023-04-28T15:22:37.751Z,4.53
2023-04-28T15:25:04.776Z,4.50
2023-04-28T15:27:32.130Z,4.75
2023-04-28T15:29:58.934Z,5.20
2023-04-28T15:32:26.555Z,5.28
2023-04-28T15:34:54.818Z,4.95
2023-04-28T15:37:44.564Z,4.82
2023-04-28T15:40:13.220Z,4.57
2023-04-28T15:42:42.332Z,4.80
2023-04-28T15:45:10.423Z,5.63
2023-04-28T15:47:38.865Z,5.03
2023-04-28T15:50:06.800Z,6.57
2023-04-28T15:52:33.656Z,5.07
2023-04-28T15:55:00.873Z,5.05
2023-04-28T15:57:29.595Z,5.00
2023-04-28T15:59:56.616Z,5.35
2023-04-28T16:02:23.575Z,5.63
2023-04-28T16:04:53.159Z,5.10
2023-04-28T16:07:20.412Z,4.93
2023-04-28T16:09:47.093Z,4.85
2023-04-28T16:12:13.954Z,5.50
2023-04-28T16:14:41.665Z,4.95
2023-04-28T16:17:08.465Z,4.57
2023-04-28T16:19:35.640Z,5.68
2023-04-28T16:22:02.354Z,6.07
2023-04-28T16:24:29.889Z,5.47
2023-04-28T16:26:57.987Z,5.00
2023-04-28T16:29:24.962Z,5.80
2023-04-28T16:31:52.314Z,6.03
2023-04-28T16:34:19.515Z,6.55
2023-04-28T16:36:46.598Z,7.57
2023-04-28T16:39:13.463Z,7.68
2023-04-28T16:41:40.181Z,8.20
2023-04-28T16:44:08.221Z,7.90
2023-04-28T16:46:35.013Z,7.25
2023-04-28T16:49:01.856Z,7.18
2023-04-28T16:51:28.731Z,6.47
2023-04-28T16:53:55.444Z,6.45
2023-04-28T16:56:22.228Z,5.60
2023-04-28T16:58:49.100Z,5.45
2023-04-28T17:01:15.870Z,5.30
2023-04-28T17:03:44.508Z,5.97
2023-04-28T17:06:11.620Z,6.00
2023-04-28T17:08:40.154Z,6.13
2023-04-28T17:11:07.080Z,5.70
2023-04-28T17:13:34.144Z,5.50
2023-04-28T17:16:01.349Z,5.47
2023-04-28T17:18:28.565Z,5.75
2023-04-28T17:20:56.272Z,8.15
2023-04-28T17:23:23.032Z,8.35
2023-04-28T17:25:49.889Z,7.47
2023-04-28T17:28:16.641Z,6.70
2023-04-28T17:30:47.180Z,6.47
2023-04-28T17:33:14.978Z,5.72
2023-04-28T17:35:41.940Z,6.72
2023-04-28T17:38:08.921Z,7.03
2023-04-28T17:40:35.728Z,7.90
2023-04-28T17:43:03.998Z,7.90
2023-04-28T17:45:33.282Z,9.45
2023-04-28T17:48:03.701Z,9.98
2023-04-28T17:52:58.033Z,18.35
2023-04-28T17:55:24.858Z,21.20
2023-04-28T17:57:51.854Z,17.17
2023-04-28T18:00:18.822Z,11.57
2023-04-28T18:02:45.626Z,13.02
2023-04-28T18:05:12.582Z,7.15
2023-04-28T18:07:39.764Z,7.68
2023-04-28T18:10:06.693Z,9.07
2023-04-28T18:12:33.397Z,7.60
2023-04-28T18:15:01.336Z,9.10
2023-04-28T18:17:28.289Z,9.38
2023-04-28T18:19:56.807Z,8.93
2023-04-28T18:22:23.840Z,9.00
2023-04-28T18:24:50.780Z,10.35
2023-04-28T18:27:17.700Z,10.07
2023-04-28T18:29:45.011Z,11.95
2023-04-28T18:32:14.534Z,16.52
2023-04-28T18:34:42.028Z,23.35
2023-04-28T18:37:09.590Z,26.63
2023-04-28T18:39:36.626Z,39.42
2023-04-28T18:42:04.284Z,40.08
2023-04-28T18:44:31.293Z,14.43
2023-04-28T18:46:58.538Z,12.30
2023-04-28T18:49:25.747Z,24.40
2023-04-28T18:51:52.662Z,24.70
2023-04-28T18:54:19.783Z,21.23
2023-04-28T18:56:47.951Z,20.83
2023-04-28T18:59:14.793Z,21.05
2023-04-28T19:01:41.604Z,20.42
2023-04-28T19:04:08.561Z,21.80
2023-04-28T19:06:36.276Z,20.15
2023-04-28T19:09:03.104Z,21.98
2023-04-28T19:11:30.494Z,21.75
2023-04-28T19:13:57.980Z,20.08
2023-04-28T19:16:24.745Z,22.58
2023-04-28T19:18:53.990Z,22.80
2023-04-28T19:21:20.658Z,22.67
2023-04-28T19:23:48.347Z,22.05
2023-04-28T19:26:15.122Z,24.10
2023-04-28T19:28:42.917Z,24.15
2023-04-28T19:31:09.671Z,25.90
2023-04-28T19:33:36.435Z,30.67
2023-04-28T19:36:04.717Z,29.52
2023-04-28T19:38:31.612Z,33.38
2023-04-28T19:41:01.395Z,39.70
2023-04-28T19:43:28.256Z,32.30
2023-04-28T19:45:55.089Z,34.10
2023-04-28T19:48:21.910Z,33.05
2023-04-28T19:50:48.740Z,30.77
2023-04-28T19:53:15.504Z,28.45
2023-04-28T19:55:42.200Z,26.88
2023-04-28T19:58:10.545Z,26.58
2023-04-28T20:00:37.547Z,26.20
2023-04-28T20:03:04.533Z,24.15
2023-04-28T20:05:31.369Z,27.10
2023-04-28T20:07:58.426Z,23.52
2023-04-28T20:10:25.222Z,23.98
2023-04-28T20:12:54.292Z,23.25
2023-04-28T20:15:21.115Z,21.80
2023-04-28T20:17:47.980Z,21.50
2023-04-28T20:20:14.717Z,20.75
2023-04-28T20:22:41.479Z,19.42
2023-04-28T20:25:10.444Z,19.23
2023-04-28T20:27:37.586Z,21.95
2023-04-28T20:30:05.060Z,22.05
2023-04-28T20:32:32.068Z,19.95
2023-04-28T20:34:59.256Z,21.10
2023-04-28T20:37:26.371Z,19.60
2023-04-28T20:39:53.473Z,23.30
2023-04-28T20:42:20.306Z,22.60
2023-04-28T20:44:47.090Z,23.67
2023-04-28T20:47:14.034Z,24.42
2023-04-28T20:49:40.974Z,24.33
2023-04-28T20:52:31.561Z,26.00
2023-04-28T20:57:25.337Z,26.65
2023-04-28T20:59:52.356Z,27.15
2023-04-28T21:02:19.412Z,28.30
2023-04-28T21:04:46.406Z,29.13
2023-04-28T21:07:14.720Z,29.65
2023-04-28T21:09:42.141Z,25.85
2023-04-28T21:12:09.593Z,21.10
2023-04-28T21:14:36.688Z,21.52
2023-04-28T21:17:03.911Z,19.45
2023-04-28T21:19:31.357Z,21.85
2023-04-28T21:21:58.561Z,16.00
2023-04-28T21:24:25.265Z,12.77
2023-04-28T21:26:52.206Z,12.73
2023-04-28T21:29:19.256Z,12.25
2023-04-28T21:31:47.398Z,10.70
2023-04-28T21:34:16.759Z,12.13
2023-04-28T21:36:43.480Z,13.43
2023-04-28T21:39:11.915Z,13.25
2023-04-28T21:41:38.964Z,13.73
2023-04-28T21:44:06.079Z,12.63
2023-04-28T21:46:32.864Z,11.98
2023-04-28T21:48:59.743Z,11.35
2023-04-28T21:51:27.589Z,11.27
2023-04-28T21:53:54.390Z,11.05
2023-04-28T21:56:22.325Z,10.77
2023-04-28T21:58:49.109Z,11.57
2023-04-28T22:01:17.950Z,10.15
2023-04-28T22:03:46.532Z,10.15
2023-04-28T22:06:13.678Z,9.07
2023-04-28T22:08:40.468Z,9.05
2023-04-28T22:11:08.211Z,9.68
2023-04-28T22:13:35.022Z,10.15
2023-04-28T22:16:02.048Z,8.45
2023-04-28T22:18:29.464Z,9.55
2023-04-28T22:20:56.900Z,9.15
2023-04-28T22:23:23.755Z,10.38
2023-04-28T22:25:50.595Z,10.02
2023-04-28T22:28:17.469Z,10.75
2023-04-28T22:30:49.122Z,9.35
2023-04-28T22:33:16.116Z,12.05
2023-04-28T22:35:42.921Z,10.48
2023-04-28T22:38:09.716Z,8.90
2023-04-28T22:40:36.438Z,9.20
2023-04-28T22:43:03.189Z,9.60
2023-04-28T22:45:30.172Z,9.30
2023-04-28T22:47:57.270Z,11.30
2023-04-28T22:50:24.182Z,9.27
2023-04-28T22:52:52.323Z,8.57
2023-04-28T22:55:19.686Z,8.85
2023-04-28T22:57:46.787Z,9.23
2023-04-28T23:00:16.164Z,8.15
2023-04-28T23:02:43.511Z,10.73
2023-04-28T23:05:10.790Z,9.57
2023-04-28T23:07:37.501Z,8.60
2023-04-28T23:10:05.207Z,9.23
2023-04-28T23:12:32.008Z,8.13
2023-04-28T23:14:58.738Z,8.60
2023-04-28T23:17:25.716Z,7.50
2023-04-28T23:19:52.912Z,8.00
2023-04-28T23:22:21.068Z,8.38
2023-04-28T23:24:48.095Z,8.00
2023-04-28T23:27:15.315Z,8.70
2023-04-28T23:29:42.177Z,9.48
2023-04-28T23:32:09.218Z,8.90
2023-04-28T23:34:39.032Z,8.57
2023-04-28T23:37:06.770Z,7.72
2023-04-28T23:39:33.958Z,7.82
2023-04-28T23:42:01.769Z,7.95
2023-04-28T23:44:28.777Z,7.70
2023-04-28T23:46:56.327Z,7.18
2023-04-28T23:49:23.790Z,8.02
2023-04-28T23:51:50.635Z,6.70
2023-04-28T23:54:17.410Z,6.82
2023-04-28T23:56:44.290Z,7.65
2023-04-28T23:59:11.005Z,7.47
